sensor_id;sensor_type;location;lat;lon;timestamp;pressure;altitude;pressure_sealevel;temperature;humidity
18678;BME280;9469;51.114;13.914;2023-02-19T00:03:37;98671.72;;;8.90;100.00
18678;BME280;9469;51.114;13.914;2023-02-19T00:08:45;98665.84;;;8.93;100.00
18678;BME280;9469;51.114;13.914;2023-02-19T00:13:52;98645.72;;;9.06;100.00
18678;BME280;9469;51.114;13.914;2023-02-19T00:18:59;98646.16;;;8.94;100.00
18678;BME280;9469;51.114;13.914;2023-02-19T00:24:10;98635.38;;;8.91;100.00
18678;BME280;9469;51.114;13.914;2023-02-19T00:29:17;98638.69;;;8.96;100.00
18678;BME280;9469;51.114;13.914;2023-02-19T00:34:22;98638.06;;;9.04;100.00
18678;BME280;9469;51.114;13.914;2023-02-19T00:39:29;98628.31;;;9.00;100.00
18678;BME280;9469;51.114;13.914;2023-02-19T00:44:34;98622.72;;;9.01;100.00
18678;BME280;9469;51.114;13.914;2023-02-19T00:49:39;98621.66;;;9.02;100.00
18678;BME280;9469;51.114;13.914;2023-02-19T00:54:47;98613.16;;;9.00;100.00
18678;BME280;9469;51.114;13.914;2023-02-19T00:59:52;98619.06;;;8.97;100.00
18678;BME280;9469;51.114;13.914;2023-02-19T01:04:57;98606.19;;;8.91;100.00
18678;BME280;9469;51.114;13.914;2023-02-19T01:10:08;98603.81;;;8.89;100.00
18678;BME280;9469;51.114;13.914;2023-02-19T01:15:14;98595.84;;;8.89;100.00
18678;BME280;9469;51.114;13.914;2023-02-19T01:20:19;98586.50;;;8.78;100.00
18678;BME280;9469;51.114;13.914;2023-02-19T01:25:26;98574.09;;;8.74;100.00
18678;BME280;9469;51.114;13.914;2023-02-19T01:30:33;98574.44;;;8.86;100.00
18678;BME280;9469;51.114;13.914;2023-02-19T01:35:38;98563.81;;;8.86;100.00
18678;BME280;9469;51.114;13.914;2023-02-19T01:40:53;98548.72;;;8.86;100.00
18678;BME280;9469;51.114;13.914;2023-02-19T01:45:58;98536.91;;;8.92;100.00
18678;BME280;9469;51.114;13.914;2023-02-19T01:51:06;98542.06;;;9.02;100.00
18678;BME280;9469;51.114;13.914;2023-02-19T01:56:17;98542.78;;;8.89;100.00
18678;BME280;9469;51.114;13.914;2023-02-19T02:01:23;98523.66;;;8.92;100.00
18678;BME280;9469;51.114;13.914;2023-02-19T02:06:30;98520.41;;;8.82;100.00
18678;BME280;9469;51.114;13.914;2023-02-19T02:11:44;98527.16;;;8.74;100.00
18678;BME280;9469;51.114;13.914;2023-02-19T02:16:54;98514.59;;;8.66;100.00
18678;BME280;9469;51.114;13.914;2023-02-19T02:22:06;98503.84;;;8.57;100.00
18678;BME280;9469;51.114;13.914;2023-02-19T02:27:28;98501.97;;;8.58;100.00
18678;BME280;9469;51.114;13.914;2023-02-19T02:32:45;98492.44;;;8.43;100.00
18678;BME280;9469;51.114;13.914;2023-02-19T02:37:59;98492.72;;;8.42;100.00
18678;BME280;9469;51.114;13.914;2023-02-19T02:43:06;98478.88;;;8.45;100.00
18678;BME280;9469;51.114;13.914;2023-02-19T02:48:25;98482.38;;;8.27;100.00
18678;BME280;9469;51.114;13.914;2023-02-19T02:53:34;98466.09;;;8.33;100.00
18678;BME280;9469;51.114;13.914;2023-02-19T02:58:55;98459.50;;;8.31;100.00
18678;BME280;9469;51.114;13.914;2023-02-19T03:04:09;98456.94;;;8.26;100.00
18678;BME280;9469;51.114;13.914;2023-02-19T03:09:19;98441.03;;;8.26;100.00
18678;BME280;9469;51.114;13.914;2023-02-19T03:14:36;98439.19;;;8.26;100.00
18678;BME280;9469;51.114;13.914;2023-02-19T03:20:00;98442.66;;;8.22;100.00
18678;BME280;9469;51.114;13.914;2023-02-19T03:25:11;98444.34;;;8.18;100.00
18678;BME280;9469;51.114;13.914;2023-02-19T03:30:33;98437.75;;;8.15;100.00
18678;BME280;9469;51.114;13.914;2023-02-19T03:35:44;98440.28;;;8.07;100.00
18678;BME280;9469;51.114;13.914;2023-02-19T03:41:04;98422.81;;;8.06;100.00
18678;BME280;9469;51.114;13.914;2023-02-19T03:46:14;98427.72;;;8.12;100.00
18678;BME280;9469;51.114;13.914;2023-02-19T03:51:31;98419.09;;;8.07;100.00
18678;BME280;9469;51.114;13.914;2023-02-19T03:56:46;98410.06;;;8.08;100.00
18678;BME280;9469;51.114;13.914;2023-02-19T04:01:55;98406.91;;;8.06;100.00
18678;BME280;9469;51.114;13.914;2023-02-19T04:07:04;98400.78;;;8.24;100.00
18678;BME280;9469;51.114;13.914;2023-02-19T04:12:13;98395.53;;;8.19;100.00
18678;BME280;9469;51.114;13.914;2023-02-19T04:17:25;98397.91;;;8.07;100.00
18678;BME280;9469;51.114;13.914;2023-02-19T04:22:35;98387.53;;;8.24;100.00
18678;BME280;9469;51.114;13.914;2023-02-19T04:27:43;98385.72;;;8.06;100.00
18678;BME280;9469;51.114;13.914;2023-02-19T04:32:49;98379.53;;;8.29;100.00
18678;BME280;9469;51.114;13.914;2023-02-19T04:37:57;98368.47;;;8.08;100.00
18678;BME280;9469;51.114;13.914;2023-02-19T04:43:02;98359.63;;;8.13;100.00
18678;BME280;9469;51.114;13.914;2023-02-19T04:48:07;98364.44;;;8.11;100.00
18678;BME280;9469;51.114;13.914;2023-02-19T04:53:15;98363.47;;;8.07;100.00
18678;BME280;9469;51.114;13.914;2023-02-19T04:58:20;98356.50;;;8.11;100.00
18678;BME280;9469;51.114;13.914;2023-02-19T05:03:25;98370.22;;;8.13;100.00
18678;BME280;9469;51.114;13.914;2023-02-19T05:08:33;98365.91;;;8.17;100.00
18678;BME280;9469;51.114;13.914;2023-02-19T05:13:39;98374.31;;;8.05;100.00
18678;BME280;9469;51.114;13.914;2023-02-19T05:18:45;98386.22;;;8.08;100.00
18678;BME280;9469;51.114;13.914;2023-02-19T05:23:53;98388.66;;;8.04;100.00
18678;BME280;9469;51.114;13.914;2023-02-19T05:28:58;98385.16;;;8.09;100.00
18678;BME280;9469;51.114;13.914;2023-02-19T05:34:03;98376.94;;;7.91;100.00
18678;BME280;9469;51.114;13.914;2023-02-19T05:39:12;98379.09;;;7.89;100.00
18678;BME280;9469;51.114;13.914;2023-02-19T05:44:17;98379.69;;;7.86;100.00
18678;BME280;9469;51.114;13.914;2023-02-19T05:49:22;98384.13;;;7.91;100.00
18678;BME280;9469;51.114;13.914;2023-02-19T05:54:31;98372.81;;;7.85;100.00
18678;BME280;9469;51.114;13.914;2023-02-19T05:59:35;98379.47;;;7.83;100.00
18678;BME280;9469;51.114;13.914;2023-02-19T06:04:40;98393.22;;;7.85;100.00
18678;BME280;9469;51.114;13.914;2023-02-19T06:09:51;98384.69;;;7.88;100.00
18678;BME280;9469;51.114;13.914;2023-02-19T06:14:57;98397.50;;;7.81;100.00
18678;BME280;9469;51.114;13.914;2023-02-19T06:20:02;98400.38;;;7.84;100.00
18678;BME280;9469;51.114;13.914;2023-02-19T06:25:10;98397.22;;;7.82;100.00
18678;BME280;9469;51.114;13.914;2023-02-19T06:30:15;98410.19;;;7.84;100.00
18678;BME280;9469;51.114;13.914;2023-02-19T06:35:21;98416.78;;;7.86;100.00
18678;BME280;9469;51.114;13.914;2023-02-19T06:40:28;98424.13;;;7.89;100.00
18678;BME280;9469;51.114;13.914;2023-02-19T06:45:33;98426.75;;;7.89;100.00
18678;BME280;9469;51.114;13.914;2023-02-19T06:50:39;98434.22;;;7.87;100.00
18678;BME280;9469;51.114;13.914;2023-02-19T06:55:54;98443.16;;;7.91;100.00
18678;BME280;9469;51.114;13.914;2023-02-19T07:00:59;98447.00;;;7.99;100.00
18678;BME280;9469;51.114;13.914;2023-02-19T07:06:05;98449.59;;;7.85;100.00
18678;BME280;9469;51.114;13.914;2023-02-19T07:11:15;98466.50;;;7.89;100.00
18678;BME280;9469;51.114;13.914;2023-02-19T07:16:20;98480.50;;;8.09;100.00
18678;BME280;9469;51.114;13.914;2023-02-19T07:21:27;98503.28;;;7.72;100.00
18678;BME280;9469;51.114;13.914;2023-02-19T07:26:35;98508.63;;;7.30;100.00
18678;BME280;9469;51.114;13.914;2023-02-19T07:31:41;98529.19;;;7.33;100.00
18678;BME280;9469;51.114;13.914;2023-02-19T07:36:46;98546.16;;;7.32;100.00
18678;BME280;9469;51.114;13.914;2023-02-19T07:41:54;98568.13;;;6.80;100.00
18678;BME280;9469;51.114;13.914;2023-02-19T07:47:01;98582.50;;;6.98;100.00
18678;BME280;9469;51.114;13.914;2023-02-19T07:52:05;98591.13;;;6.80;100.00
18678;BME280;9469;51.114;13.914;2023-02-19T07:57:13;98587.72;;;6.74;100.00
18678;BME280;9469;51.114;13.914;2023-02-19T08:02:19;98611.56;;;6.69;100.00
18678;BME280;9469;51.114;13.914;2023-02-19T08:07:37;98623.41;;;6.72;100.00
18678;BME280;9469;51.114;13.914;2023-02-19T08:12:45;98628.28;;;6.60;100.00
18678;BME280;9469;51.114;13.914;2023-02-19T08:18:02;98643.88;;;6.56;100.00
18678;BME280;9469;51.114;13.914;2023-02-19T08:23:10;98647.75;;;6.35;100.00
18678;BME280;9469;51.114;13.914;2023-02-19T08:28:19;98677.97;;;6.09;100.00
18678;BME280;9469;51.114;13.914;2023-02-19T08:33:24;98686.56;;;6.39;100.00
18678;BME280;9469;51.114;13.914;2023-02-19T08:38:32;98702.63;;;5.84;100.00
18678;BME280;9469;51.114;13.914;2023-02-19T08:43:43;98718.41;;;6.04;100.00
18678;BME280;9469;51.114;13.914;2023-02-19T08:48:48;98734.00;;;5.96;100.00
18678;BME280;9469;51.114;13.914;2023-02-19T08:53:55;98741.19;;;5.85;100.00
18678;BME280;9469;51.114;13.914;2023-02-19T08:59:03;98758.06;;;5.74;100.00
18678;BME280;9469;51.114;13.914;2023-02-19T09:04:15;98786.59;;;5.52;100.00
18678;BME280;9469;51.114;13.914;2023-02-19T09:09:22;98810.06;;;5.33;100.00
18678;BME280;9469;51.114;13.914;2023-02-19T09:14:33;98815.09;;;5.60;100.00
18678;BME280;9469;51.114;13.914;2023-02-19T09:19:38;98843.84;;;5.31;100.00
18678;BME280;9469;51.114;13.914;2023-02-19T09:24:44;98855.44;;;5.30;100.00
18678;BME280;9469;51.114;13.914;2023-02-19T09:29:52;98866.00;;;5.35;100.00
18678;BME280;9469;51.114;13.914;2023-02-19T09:34:58;98877.88;;;5.38;100.00
18678;BME280;9469;51.114;13.914;2023-02-19T09:40:07;98887.84;;;5.16;100.00
18678;BME280;9469;51.114;13.914;2023-02-19T09:45:25;98901.47;;;4.87;100.00
18678;BME280;9469;51.114;13.914;2023-02-19T09:50:33;98915.84;;;5.37;100.00
18678;BME280;9469;51.114;13.914;2023-02-19T09:55:51;98914.06;;;5.82;100.00
18678;BME280;9469;51.114;13.914;2023-02-19T10:01:00;98917.50;;;5.63;100.00
18678;BME280;9469;51.114;13.914;2023-02-19T10:06:15;98923.59;;;5.94;100.00
18678;BME280;9469;51.114;13.914;2023-02-19T10:11:24;98937.84;;;6.03;100.00
18678;BME280;9469;51.114;13.914;2023-02-19T10:16:32;98954.94;;;5.60;100.00
18678;BME280;9469;51.114;13.914;2023-02-19T10:21:38;98968.22;;;6.30;100.00
18678;BME280;9469;51.114;13.914;2023-02-19T10:26:43;98974.03;;;6.17;100.00
18678;BME280;9469;51.114;13.914;2023-02-19T10:32:11;98991.69;;;5.87;100.00
18678;BME280;9469;51.114;13.914;2023-02-19T10:37:18;98979.78;;;6.75;100.00
18678;BME280;9469;51.114;13.914;2023-02-19T10:42:23;98995.69;;;6.44;100.00
18678;BME280;9469;51.114;13.914;2023-02-19T10:47:31;99002.16;;;7.07;100.00
18678;BME280;9469;51.114;13.914;2023-02-19T10:52:36;99010.97;;;6.83;100.00
18678;BME280;9469;51.114;13.914;2023-02-19T10:57:45;99021.06;;;6.50;100.00
18678;BME280;9469;51.114;13.914;2023-02-19T11:03:21;99038.22;;;6.28;100.00
18678;BME280;9469;51.114;13.914;2023-02-19T11:08:27;99041.66;;;6.64;100.00
18678;BME280;9469;51.114;13.914;2023-02-19T11:13:35;99046.16;;;6.13;100.00
18678;BME280;9469;51.114;13.914;2023-02-19T11:18:43;99060.13;;;6.18;100.00
18678;BME280;9469;51.114;13.914;2023-02-19T11:23:48;99055.63;;;6.09;100.00
18678;BME280;9469;51.114;13.914;2023-02-19T11:28:57;99070.72;;;6.69;100.00
18678;BME280;9469;51.114;13.914;2023-02-19T11:34:24;99075.69;;;5.90;100.00
18678;BME280;9469;51.114;13.914;2023-02-19T11:39:31;99075.47;;;6.87;100.00
18678;BME280;9469;51.114;13.914;2023-02-19T11:44:45;99081.28;;;6.84;100.00
18678;BME280;9469;51.114;13.914;2023-02-19T11:49:59;99085.25;;;6.61;100.00
18678;BME280;9469;51.114;13.914;2023-02-19T11:55:13;99092.63;;;7.14;100.00
18678;BME280;9469;51.114;13.914;2023-02-19T12:00:25;99092.38;;;7.01;100.00
18678;BME280;9469;51.114;13.914;2023-02-19T12:05:41;99110.91;;;6.61;99.19
18678;BME280;9469;51.114;13.914;2023-02-19T12:16:27;99122.81;;;6.68;98.99
18678;BME280;9469;51.114;13.914;2023-02-19T12:21:57;99130.25;;;5.74;100.00
18678;BME280;9469;51.114;13.914;2023-02-19T12:27:15;99134.09;;;6.08;100.00
18678;BME280;9469;51.114;13.914;2023-02-19T12:32:44;99138.16;;;5.74;100.00
18678;BME280;9469;51.114;13.914;2023-02-19T12:38:01;99126.47;;;6.22;100.00
18678;BME280;9469;51.114;13.914;2023-02-19T12:43:14;99127.28;;;6.63;100.00
18678;BME280;9469;51.114;13.914;2023-02-19T12:48:26;99119.84;;;6.29;100.00
18678;BME280;9469;51.114;13.914;2023-02-19T12:53:40;99100.31;;;6.86;100.00
18678;BME280;9469;51.114;13.914;2023-02-19T12:58:49;99119.63;;;6.66;100.00
18678;BME280;9469;51.114;13.914;2023-02-19T13:04:12;99130.44;;;6.49;100.00
18678;BME280;9469;51.114;13.914;2023-02-19T13:09:26;99133.34;;;6.28;95.72
18678;BME280;9469;51.114;13.914;2023-02-19T13:14:39;99144.22;;;6.62;94.90
18678;BME280;9469;51.114;13.914;2023-02-19T13:19:47;99148.44;;;6.68;94.96
18678;BME280;9469;51.114;13.914;2023-02-19T13:24:57;99157.69;;;6.50;94.09
18678;BME280;9469;51.114;13.914;2023-02-19T13:30:17;99154.50;;;6.58;94.30
18678;BME280;9469;51.114;13.914;2023-02-19T13:35:50;99153.72;;;6.63;96.07
18678;BME280;9469;51.114;13.914;2023-02-19T13:41:03;99163.75;;;6.35;97.04
18678;BME280;9469;51.114;13.914;2023-02-19T13:46:13;99165.91;;;7.04;93.15
18678;BME280;9469;51.114;13.914;2023-02-19T13:51:45;99176.47;;;7.09;89.85
18678;BME280;9469;51.114;13.914;2023-02-19T13:57:23;99173.84;;;6.94;88.09
18678;BME280;9469;51.114;13.914;2023-02-19T14:02:32;99183.34;;;6.65;89.85
18678;BME280;9469;51.114;13.914;2023-02-19T14:07:53;99189.00;;;6.06;90.16
18678;BME280;9469;51.114;13.914;2023-02-19T14:13:01;99188.34;;;6.46;89.84
18678;BME280;9469;51.114;13.914;2023-02-19T14:23:50;99195.75;;;6.59;87.70
18678;BME280;9469;51.114;13.914;2023-02-19T14:28:59;99197.97;;;6.05;89.27
18678;BME280;9469;51.114;13.914;2023-02-19T14:34:13;99203.47;;;5.94;89.03
18678;BME280;9469;51.114;13.914;2023-02-19T14:39:22;99212.63;;;5.81;89.87
18678;BME280;9469;51.114;13.914;2023-02-19T14:44:39;99219.47;;;5.72;90.91
18678;BME280;9469;51.114;13.914;2023-02-19T14:49:54;99230.84;;;5.82;91.36
18678;BME280;9469;51.114;13.914;2023-02-19T14:55:06;99228.88;;;5.58;90.38
18678;BME280;9469;51.114;13.914;2023-02-19T15:00:25;99238.97;;;5.71;90.58
18678;BME280;9469;51.114;13.914;2023-02-19T15:05:32;99239.75;;;5.30;92.53
18678;BME280;9469;51.114;13.914;2023-02-19T15:10:38;99255.69;;;5.45;92.95
18678;BME280;9469;51.114;13.914;2023-02-19T15:15:51;99252.03;;;5.51;92.91
18678;BME280;9469;51.114;13.914;2023-02-19T15:21:02;99258.22;;;5.66;92.58
18678;BME280;9469;51.114;13.914;2023-02-19T15:26:18;99256.69;;;5.75;92.92
18678;BME280;9469;51.114;13.914;2023-02-19T15:31:27;99255.94;;;5.43;93.61
18678;BME280;9469;51.114;13.914;2023-02-19T15:36:33;99259.47;;;5.54;93.74
18678;BME280;9469;51.114;13.914;2023-02-19T15:41:42;99253.81;;;5.40;93.83
18678;BME280;9469;51.114;13.914;2023-02-19T15:46:56;99269.28;;;5.27;94.32
18678;BME280;9469;51.114;13.914;2023-02-19T15:52:06;99286.09;;;5.21;94.58
18678;BME280;9469;51.114;13.914;2023-02-19T15:57:19;99296.81;;;5.41;94.51
18678;BME280;9469;51.114;13.914;2023-02-19T16:02:38;99285.47;;;5.40;93.79
18678;BME280;9469;51.114;13.914;2023-02-19T16:07:44;99286.78;;;5.43;95.13
18678;BME280;9469;51.114;13.914;2023-02-19T16:12:56;99284.91;;;5.38;95.16
18678;BME280;9469;51.114;13.914;2023-02-19T16:18:11;99285.28;;;5.20;95.98
18678;BME280;9469;51.114;13.914;2023-02-19T16:23:19;99278.44;;;5.19;96.85
18678;BME280;9469;51.114;13.914;2023-02-19T16:28:27;99291.13;;;5.22;97.26
18678;BME280;9469;51.114;13.914;2023-02-19T16:33:37;99291.22;;;5.05;97.72
18678;BME280;9469;51.114;13.914;2023-02-19T16:44:29;99331.78;;;4.99;98.00
18678;BME280;9469;51.114;13.914;2023-02-19T16:49:41;99352.22;;;4.87;98.80
18678;BME280;9469;51.114;13.914;2023-02-19T16:54:49;99362.94;;;4.81;98.78
18678;BME280;9469;51.114;13.914;2023-02-19T16:59:54;99369.69;;;4.72;99.49
18678;BME280;9469;51.114;13.914;2023-02-19T17:05:05;99385.00;;;4.96;99.83
18678;BME280;9469;51.114;13.914;2023-02-19T17:10:12;99398.38;;;4.68;100.00
18678;BME280;9469;51.114;13.914;2023-02-19T17:15:17;99401.69;;;4.59;100.00
18678;BME280;9469;51.114;13.914;2023-02-19T17:20:27;99406.72;;;4.60;100.00
18678;BME280;9469;51.114;13.914;2023-02-19T17:25:33;99404.31;;;4.59;100.00
18678;BME280;9469;51.114;13.914;2023-02-19T17:30:38;99405.53;;;4.51;100.00
18678;BME280;9469;51.114;13.914;2023-02-19T17:35:46;99417.59;;;4.47;100.00
18678;BME280;9469;51.114;13.914;2023-02-19T17:40:51;99428.97;;;4.31;100.00
18678;BME280;9469;51.114;13.914;2023-02-19T17:45:57;99436.06;;;4.30;100.00
18678;BME280;9469;51.114;13.914;2023-02-19T17:51:05;99439.41;;;4.43;100.00
18678;BME280;9469;51.114;13.914;2023-02-19T17:56:14;99440.59;;;4.35;100.00
18678;BME280;9469;51.114;13.914;2023-02-19T18:01:20;99455.41;;;4.58;100.00
18678;BME280;9469;51.114;13.914;2023-02-19T18:06:28;99451.13;;;4.35;100.00
18678;BME280;9469;51.114;13.914;2023-02-19T18:11:33;99443.84;;;4.59;100.00
18678;BME280;9469;51.114;13.914;2023-02-19T18:16:44;99460.66;;;4.36;100.00
18678;BME280;9469;51.114;13.914;2023-02-19T18:21:54;99464.31;;;4.35;100.00
18678;BME280;9469;51.114;13.914;2023-02-19T18:27:00;99469.25;;;4.48;100.00
18678;BME280;9469;51.114;13.914;2023-02-19T18:32:06;99476.03;;;4.44;100.00
18678;BME280;9469;51.114;13.914;2023-02-19T18:37:14;99472.22;;;4.18;100.00
18678;BME280;9469;51.114;13.914;2023-02-19T18:42:20;99480.84;;;4.30;100.00
18678;BME280;9469;51.114;13.914;2023-02-19T18:47:25;99477.00;;;4.21;100.00
18678;BME280;9469;51.114;13.914;2023-02-19T18:52:33;99482.41;;;4.48;100.00
18678;BME280;9469;51.114;13.914;2023-02-19T18:57:38;99478.28;;;4.19;100.00
18678;BME280;9469;51.114;13.914;2023-02-19T19:02:45;99493.38;;;4.07;100.00
18678;BME280;9469;51.114;13.914;2023-02-19T19:07:56;99484.28;;;3.98;100.00
18678;BME280;9469;51.114;13.914;2023-02-19T19:13:02;99478.28;;;3.86;100.00
18678;BME280;9469;51.114;13.914;2023-02-19T19:18:09;99502.69;;;3.98;100.00
18678;BME280;9469;51.114;13.914;2023-02-19T19:23:17;99499.84;;;4.16;100.00
18678;BME280;9469;51.114;13.914;2023-02-19T19:28:23;99500.53;;;3.95;100.00
18678;BME280;9469;51.114;13.914;2023-02-19T19:33:31;99497.81;;;3.90;100.00
18678;BME280;9469;51.114;13.914;2023-02-19T19:38:39;99501.19;;;4.02;100.00
18678;BME280;9469;51.114;13.914;2023-02-19T19:43:45;99510.94;;;4.18;100.00
18678;BME280;9469;51.114;13.914;2023-02-19T19:48:56;99498.31;;;3.87;100.00
18678;BME280;9469;51.114;13.914;2023-02-19T19:54:05;99508.91;;;3.92;100.00
18678;BME280;9469;51.114;13.914;2023-02-19T19:59:13;99506.13;;;4.15;100.00
18678;BME280;9469;51.114;13.914;2023-02-19T20:04:20;99502.28;;;4.06;100.00
18678;BME280;9469;51.114;13.914;2023-02-19T20:09:31;99512.84;;;4.06;100.00
18678;BME280;9469;51.114;13.914;2023-02-19T20:14:38;99503.47;;;3.98;100.00
18678;BME280;9469;51.114;13.914;2023-02-19T20:19:47;99504.13;;;4.05;100.00
18678;BME280;9469;51.114;13.914;2023-02-19T20:24:57;99510.31;;;3.83;100.00
18678;BME280;9469;51.114;13.914;2023-02-19T20:30:05;99497.72;;;3.85;100.00
18678;BME280;9469;51.114;13.914;2023-02-19T20:35:13;99498.88;;;3.60;100.00
18678;BME280;9469;51.114;13.914;2023-02-19T20:40:21;99495.19;;;3.90;100.00
18678;BME280;9469;51.114;13.914;2023-02-19T20:45:31;99511.69;;;3.85;100.00
18678;BME280;9469;51.114;13.914;2023-02-19T20:50:36;99502.47;;;3.71;100.00
18678;BME280;9469;51.114;13.914;2023-02-19T20:55:46;99507.41;;;3.68;100.00
18678;BME280;9469;51.114;13.914;2023-02-19T21:00:52;99515.47;;;3.61;100.00
18678;BME280;9469;51.114;13.914;2023-02-19T21:05:57;99525.41;;;3.19;100.00
18678;BME280;9469;51.114;13.914;2023-02-19T21:11:05;99532.72;;;3.17;100.00
18678;BME280;9469;51.114;13.914;2023-02-19T21:16:12;99536.88;;;3.13;100.00
18678;BME280;9469;51.114;13.914;2023-02-19T21:21:17;99548.47;;;3.40;100.00
18678;BME280;9469;51.114;13.914;2023-02-19T21:26:34;99554.13;;;3.21;100.00
18678;BME280;9469;51.114;13.914;2023-02-19T21:31:41;99558.97;;;3.40;100.00
18678;BME280;9469;51.114;13.914;2023-02-19T21:36:48;99567.47;;;3.19;100.00
18678;BME280;9469;51.114;13.914;2023-02-19T21:41:56;99565.50;;;3.38;100.00
18678;BME280;9469;51.114;13.914;2023-02-19T21:47:01;99572.47;;;3.44;100.00
18678;BME280;9469;51.114;13.914;2023-02-19T21:52:06;99569.28;;;3.30;100.00
18678;BME280;9469;51.114;13.914;2023-02-19T21:57:17;99565.63;;;3.31;100.00
18678;BME280;9469;51.114;13.914;2023-02-19T22:02:23;99571.69;;;3.32;100.00
18678;BME280;9469;51.114;13.914;2023-02-19T22:07:31;99563.59;;;3.22;100.00
18678;BME280;9469;51.114;13.914;2023-02-19T22:12:38;99558.34;;;3.10;100.00
18678;BME280;9469;51.114;13.914;2023-02-19T22:17:44;99543.38;;;3.11;100.00
18678;BME280;9469;51.114;13.914;2023-02-19T22:22:49;99559.38;;;3.21;100.00
18678;BME280;9469;51.114;13.914;2023-02-19T22:27:57;99545.88;;;3.17;100.00
18678;BME280;9469;51.114;13.914;2023-02-19T22:33:02;99536.69;;;2.80;100.00
18678;BME280;9469;51.114;13.914;2023-02-19T22:38:07;99537.09;;;3.23;100.00
18678;BME280;9469;51.114;13.914;2023-02-19T22:43:18;99537.38;;;2.87;100.00
18678;BME280;9469;51.114;13.914;2023-02-19T22:48:23;99529.78;;;3.14;100.00
18678;BME280;9469;51.114;13.914;2023-02-19T22:53:31;99531.50;;;3.08;100.00
18678;BME280;9469;51.114;13.914;2023-02-19T22:58:38;99516.28;;;3.10;100.00
18678;BME280;9469;51.114;13.914;2023-02-19T23:03:45;99516.16;;;3.17;100.00
18678;BME280;9469;51.114;13.914;2023-02-19T23:08:51;99518.31;;;3.31;100.00
18678;BME280;9469;51.114;13.914;2023-02-19T23:13:59;99494.66;;;3.59;100.00
18678;BME280;9469;51.114;13.914;2023-02-19T23:19:06;99477.97;;;3.54;100.00
18678;BME280;9469;51.114;13.914;2023-02-19T23:24:13;99485.91;;;3.87;100.00
18678;BME280;9469;51.114;13.914;2023-02-19T23:29:22;99484.13;;;3.59;100.00
18678;BME280;9469;51.114;13.914;2023-02-19T23:34:28;99488.78;;;3.86;100.00
18678;BME280;9469;51.114;13.914;2023-02-19T23:39:33;99487.38;;;3.95;100.00
18678;BME280;9469;51.114;13.914;2023-02-19T23:44:41;99490.66;;;4.02;100.00
18678;BME280;9469;51.114;13.914;2023-02-19T23:49:48;99487.03;;;3.75;100.00
18678;BME280;9469;51.114;13.914;2023-02-19T23:54:54;99472.19;;;3.69;100.00
